createdAt,value
2019-04-21T00:00:11.858Z,10.78
2019-04-21T00:01:12.503Z,10.72
2019-04-21T00:02:08.922Z,10.79
2019-04-21T00:03:15.165Z,10.78
2019-04-21T00:04:19.701Z,10.75
2019-04-21T00:05:33.469Z,10.78
2019-04-21T00:06:32.176Z,10.71
2019-04-21T00:07:29.717Z,10.76
2019-04-21T00:08:57.950Z,10.74
2019-04-21T00:09:32.645Z,10.69
2019-04-21T00:10:33.383Z,10.72
2019-04-21T00:11:29.580Z,10.68
2019-04-21T00:12:31.130Z,10.64
2019-04-21T00:13:25.337Z,10.76
2019-04-21T00:14:22.697Z,10.61
2019-04-21T00:15:20.204Z,10.60
2019-04-21T00:16:12.578Z,10.60
2019-04-21T00:17:15.627Z,10.71
2019-04-21T00:18:10.945Z,10.63
2019-04-21T00:19:14.349Z,10.54
2019-04-21T00:20:20.436Z,10.57
2019-04-21T00:21:20.505Z,10.59
2019-04-21T00:22:26.089Z,10.57
2019-04-21T00:23:21.643Z,10.56
2019-04-21T00:24:24.211Z,10.60
2019-04-21T00:25:25.055Z,10.53
2019-04-21T00:26:31.822Z,10.53
2019-04-21T00:27:24.587Z,10.53
2019-04-21T00:28:39.546Z,10.51
2019-04-21T00:29:36.128Z,10.51
2019-04-21T00:30:32.935Z,10.54
2019-04-21T00:31:24.646Z,10.53
2019-04-21T00:33:22.997Z,10.41
2019-04-21T00:34:19.585Z,10.49
2019-04-21T00:35:22.524Z,10.46
2019-04-21T00:36:27.387Z,10.35
2019-04-21T00:37:30.186Z,10.28
2019-04-21T00:38:56.213Z,10.38
2019-04-21T00:39:49.329Z,10.37
2019-04-21T00:40:41.767Z,10.37
2019-04-21T00:41:43.690Z,10.31
2019-04-21T00:42:38.634Z,10.28
2019-04-21T00:43:35.377Z,10.28
2019-04-21T00:44:29.656Z,10.20
2019-04-21T00:45:37.634Z,10.28
2019-04-21T00:46:37.320Z,10.25
2019-04-21T00:47:39.237Z,10.23
2019-04-21T00:48:42.393Z,10.19
2019-04-21T00:49:34.329Z,10.20
2019-04-21T00:51:01.111Z,10.20
2019-04-21T00:51:47.050Z,10.15
2019-04-21T00:53:49.586Z,10.10
2019-04-21T00:54:55.056Z,10.09
2019-04-21T00:55:44.501Z,10.07
2019-04-21T00:56:41.334Z,10.02
2019-04-21T00:57:49.859Z,10.01
2019-04-21T00:58:42.260Z,10.12
2019-04-21T00:59:43.276Z,9.97
2019-04-21T01:00:40.929Z,9.98
2019-04-21T01:01:39.390Z,9.91
2019-04-21T01:02:47.250Z,9.94
2019-04-21T01:03:46.303Z,9.89
2019-04-21T01:04:42.808Z,9.94
2019-04-21T01:05:41.124Z,9.87
2019-04-21T01:06:46.805Z,9.92
2019-04-21T01:07:42.325Z,9.87
2019-04-21T01:08:40.186Z,9.91
2019-04-21T01:09:31.679Z,9.86
2019-04-21T01:10:33.571Z,9.82
2019-04-21T01:11:47.364Z,9.82
2019-04-21T01:12:41.815Z,9.82
2019-04-21T01:13:44.020Z,9.80
2019-04-21T01:14:49.915Z,9.80
2019-04-21T01:15:43.584Z,9.83
2019-04-21T01:16:40.824Z,9.80
2019-04-21T01:17:42.953Z,9.80
2019-04-21T01:18:41.005Z,9.79
2019-04-21T01:19:37.344Z,9.80
2019-04-21T01:20:18.591Z,9.76
2019-04-21T01:21:17.498Z,9.79
2019-04-21T01:22:17.470Z,9.77
2019-04-21T01:23:17.458Z,9.80
2019-04-21T01:24:25.953Z,9.77
2019-04-21T01:25:27.446Z,9.80
2019-04-21T01:26:32.837Z,9.79
2019-04-21T01:27:39.761Z,9.76
2019-04-21T01:28:36.211Z,9.80
2019-04-21T01:29:41.473Z,9.77
2019-04-21T01:30:41.478Z,9.74
2019-04-21T01:31:40.419Z,9.82
2019-04-21T01:32:42.711Z,9.77
2019-04-21T01:33:53.881Z,9.73
2019-04-21T01:34:39.427Z,9.76
2019-04-21T01:35:40.309Z,9.73
2019-04-21T01:36:38.844Z,9.74
2019-04-21T01:37:44.146Z,9.73
2019-04-21T01:38:40.081Z,9.68
2019-04-21T01:39:42.729Z,9.62
2019-04-21T01:40:43.114Z,9.61
2019-04-21T01:41:41.326Z,9.59
2019-04-21T01:42:41.991Z,9.62
2019-04-21T01:43:38.380Z,9.68
2019-04-21T01:44:43.004Z,9.62
2019-04-21T01:45:37.639Z,9.58
2019-04-21T01:46:33.952Z,9.61
2019-04-21T01:47:37.144Z,9.59
2019-04-21T01:48:37.793Z,9.59
2019-04-21T01:49:31.827Z,9.59
2019-04-21T01:50:36.528Z,9.48
2019-04-21T01:51:36.963Z,9.56
2019-04-21T01:52:46.718Z,9.50
2019-04-21T01:53:45.492Z,9.50
2019-04-21T01:54:40.650Z,9.54
2019-04-21T01:55:36.717Z,9.50
2019-04-21T01:56:38.881Z,9.61
2019-04-21T01:57:37.726Z,9.47
2019-04-21T01:58:29.055Z,9.50
2019-04-21T01:59:30.592Z,9.50
2019-04-21T02:00:36.807Z,9.47
2019-04-21T02:01:46.176Z,9.56
2019-04-21T02:02:40.379Z,9.55
2019-04-21T02:04:41.741Z,9.50
2019-04-21T02:05:46.677Z,9.50
2019-04-21T02:06:42.026Z,9.39
2019-04-21T02:07:40.277Z,9.44
2019-04-21T02:08:36.397Z,9.41
2019-04-21T02:09:40.575Z,9.46
2019-04-21T02:10:41.469Z,9.43
2019-04-21T02:11:43.244Z,9.48
2019-04-21T02:12:40.961Z,9.37
2019-04-21T02:13:48.906Z,9.43
2019-04-21T02:14:46.346Z,9.44
2019-04-21T02:15:46.467Z,9.41
2019-04-21T02:16:40.650Z,9.39
2019-04-21T02:17:35.715Z,9.37
2019-04-21T02:18:38.982Z,9.41
2019-04-21T02:19:31.620Z,9.37
2019-04-21T02:20:29.343Z,9.34
2019-04-21T02:21:31.426Z,9.37
2019-04-21T02:23:01.365Z,9.32
2019-04-21T02:23:46.495Z,9.37
2019-04-21T02:24:45.129Z,9.29
2019-04-21T02:25:38.362Z,9.32
2019-04-21T02:26:41.520Z,9.37
2019-04-21T02:27:42.991Z,9.34
2019-04-21T02:28:50.301Z,9.34
2019-04-21T02:29:41.185Z,9.34
2019-04-21T02:31:45.160Z,9.36
2019-04-21T02:32:48.292Z,9.40
2019-04-21T02:33:55.954Z,9.32
2019-04-21T02:34:52.829Z,9.31
2019-04-21T02:36:04.830Z,9.25
2019-04-21T02:37:05.527Z,9.28
2019-04-21T02:37:53.568Z,9.23
2019-04-21T02:39:49.053Z,9.21
2019-04-21T02:42:59.418Z,9.16
2019-04-21T02:43:52.140Z,9.04
2019-04-21T02:45:47.901Z,9.08
2019-04-21T02:46:42.037Z,9.11
2019-04-21T02:49:57.497Z,9.11
2019-04-21T02:52:53.291Z,8.94
2019-04-21T02:54:39.017Z,8.88
2019-04-21T02:55:02.932Z,9.03
2019-04-21T02:55:48.094Z,9.00
2019-04-21T02:56:58.647Z,8.99
2019-04-21T02:57:59.530Z,8.88
2019-04-21T02:58:58.345Z,8.94
2019-04-21T02:59:55.479Z,8.87
2019-04-21T03:00:45.095Z,8.85
2019-04-21T03:01:56.682Z,8.79
2019-04-21T03:02:52.575Z,8.84
2019-04-21T03:03:52.927Z,8.74
2019-04-21T03:04:56.224Z,8.74
2019-04-21T03:06:05.992Z,8.79
2019-04-21T03:06:59.846Z,8.84
2019-04-21T03:10:00.134Z,8.74
2019-04-21T03:12:48.217Z,8.74
2019-04-21T03:14:05.938Z,8.70
2019-04-21T03:14:55.606Z,8.73
2019-04-21T03:15:59.244Z,8.70
2019-04-21T03:16:42.990Z,8.67
2019-04-21T03:17:49.450Z,8.74
2019-04-21T03:19:50.002Z,8.63
2019-04-21T03:20:54.860Z,8.64
2019-04-21T03:21:52.490Z,8.63
2019-04-21T03:23:15.398Z,8.56
2019-04-21T03:28:52.280Z,8.58
2019-04-21T03:36:19.092Z,8.46
2019-04-21T03:37:49.712Z,8.46
2019-04-21T03:38:40.646Z,8.45
2019-04-21T03:39:54.441Z,8.48
2019-04-21T03:40:39.925Z,8.46
2019-04-21T03:41:59.836Z,8.44
2019-04-21T03:44:45.632Z,8.51
2019-04-21T03:45:44.363Z,8.46
2019-04-21T03:46:47.220Z,8.48
2019-04-21T03:47:43.506Z,8.44
2019-04-21T03:51:48.668Z,8.48
2019-04-21T03:54:04.987Z,8.44
2019-04-21T03:57:08.816Z,8.46
2019-04-21T04:00:11.036Z,8.38
2019-04-21T04:02:18.459Z,8.37
2019-04-21T04:03:13.408Z,8.36
2019-04-21T04:04:06.987Z,8.36
2019-04-21T04:05:05.771Z,8.41
2019-04-21T04:07:08.231Z,8.36
2019-04-21T04:08:04.660Z,8.30
2019-04-21T04:09:14.298Z,8.28
2019-04-21T04:10:03.982Z,8.33
2019-04-21T04:11:54.865Z,8.28
2019-04-21T04:13:01.481Z,8.18
2019-04-21T04:14:03.444Z,8.19
2019-04-21T04:14:57.650Z,8.20
2019-04-21T04:17:54.234Z,8.23
2019-04-21T04:22:24.899Z,8.18
2019-04-21T04:24:24.368Z,8.23
2019-04-21T04:25:19.294Z,8.13
2019-04-21T04:27:33.725Z,8.28
2019-04-21T04:28:22.909Z,8.23
2019-04-21T04:29:20.389Z,8.23
2019-04-21T04:31:26.074Z,8.28
2019-04-21T04:33:34.663Z,8.24
2019-04-21T04:34:21.822Z,8.24
2019-04-21T04:35:21.567Z,8.28
2019-04-21T04:36:30.175Z,8.16
2019-04-21T04:37:26.240Z,8.33
2019-04-21T04:38:22.427Z,8.31
2019-04-21T04:40:26.064Z,8.33
2019-04-21T04:43:19.867Z,8.37
2019-04-21T04:44:23.195Z,8.36
2019-04-21T04:45:26.561Z,8.37
2019-04-21T04:46:22.319Z,8.37
2019-04-21T04:47:18.285Z,8.44
2019-04-21T04:48:11.873Z,8.37
2019-04-21T04:49:34.334Z,8.36
2019-04-21T04:50:26.323Z,8.37
2019-04-21T04:51:25.292Z,8.37
2019-04-21T04:52:31.247Z,8.36
2019-04-21T04:53:20.108Z,8.33
2019-04-21T04:54:22.963Z,8.38
2019-04-21T04:55:23.618Z,8.38
2019-04-21T04:56:26.134Z,8.41
2019-04-21T04:58:19.181Z,8.38
2019-04-21T05:00:26.107Z,8.37
2019-04-21T05:02:27.737Z,8.34
2019-04-21T05:03:31.769Z,8.34
2019-04-21T05:04:20.895Z,8.44
2019-04-21T05:05:19.071Z,8.45
2019-04-21T05:06:37.279Z,8.51
2019-04-21T05:08:35.687Z,8.46
2019-04-21T05:09:13.094Z,8.51
2019-04-21T05:10:18.599Z,8.48
2019-04-21T05:12:11.818Z,8.46
2019-04-21T05:13:21.894Z,8.44
2019-04-21T05:15:13.159Z,8.51
2019-04-21T05:16:27.263Z,8.53
2019-04-21T05:17:24.884Z,8.46
2019-04-21T05:18:15.377Z,8.49
2019-04-21T05:19:16.360Z,8.48
2019-04-21T05:20:15.763Z,8.60
2019-04-21T05:21:24.424Z,8.53
2019-04-21T05:22:20.251Z,8.55
2019-04-21T05:23:09.007Z,8.61
2019-04-21T05:24:09.050Z,8.60
2019-04-21T05:25:03.425Z,8.60
2019-04-21T05:25:58.106Z,8.64
2019-04-21T05:27:05.023Z,8.64
2019-04-21T05:27:56.450Z,8.67
2019-04-21T05:29:00.435Z,8.58
2019-04-21T05:30:15.286Z,8.63
2019-04-21T05:31:13.555Z,8.66
2019-04-21T05:32:18.456Z,8.69
2019-04-21T05:33:13.514Z,8.74
2019-04-21T05:34:09.738Z,8.76
2019-04-21T05:35:08.191Z,8.73
2019-04-21T05:36:09.418Z,8.79
2019-04-21T05:37:08.860Z,8.87
2019-04-21T05:38:06.290Z,8.88
2019-04-21T05:39:02.524Z,8.91
2019-04-21T05:40:00.521Z,8.89
2019-04-21T05:41:02.006Z,8.95
2019-04-21T05:41:54.181Z,8.92
2019-04-21T05:43:07.880Z,8.89
2019-04-21T05:44:06.620Z,8.89
2019-04-21T05:45:31.589Z,8.89
2019-04-21T05:46:13.965Z,8.89
2019-04-21T05:47:20.764Z,9.04
2019-04-21T05:48:17.343Z,9.10
2019-04-21T05:49:05.152Z,9.04
2019-04-21T05:50:07.837Z,9.10
2019-04-21T05:51:03.552Z,9.11
2019-04-21T05:52:03.609Z,9.25
2019-04-21T05:53:17.627Z,9.18
2019-04-21T05:54:21.368Z,9.18
2019-04-21T05:55:10.960Z,9.16
2019-04-21T05:56:10.042Z,9.18
2019-04-21T05:57:05.970Z,9.21
2019-04-21T05:58:06.856Z,9.31
2019-04-21T05:59:07.980Z,9.36
2019-04-21T06:00:08.769Z,9.32
2019-04-21T06:01:15.114Z,9.36
2019-04-21T06:02:19.113Z,9.40
2019-04-21T06:03:11.519Z,9.40
2019-04-21T06:04:16.893Z,9.43
2019-04-21T06:05:20.279Z,9.44
2019-04-21T06:06:16.420Z,9.48
2019-04-21T06:07:13.502Z,9.51
2019-04-21T06:08:06.980Z,9.55
2019-04-21T06:09:11.135Z,9.59
2019-04-21T06:10:04.513Z,9.66
2019-04-21T06:11:07.284Z,9.61
2019-04-21T06:12:08.666Z,9.68
2019-04-21T06:13:13.339Z,9.66
2019-04-21T06:14:10.830Z,9.79
2019-04-21T06:15:10.770Z,9.77
2019-04-21T06:16:07.502Z,9.76
2019-04-21T06:17:13.485Z,9.84
2019-04-21T06:18:13.884Z,9.91
2019-04-21T06:19:03.334Z,9.95
2019-04-21T06:20:05.634Z,9.94
2019-04-21T06:21:09.805Z,10.07
2019-04-21T06:22:10.435Z,10.04
2019-04-21T06:23:11.517Z,10.05
2019-04-21T06:24:11.534Z,10.05
2019-04-21T06:25:37.824Z,10.16
2019-04-21T06:27:09.485Z,10.23
2019-04-21T06:28:14.906Z,10.28
2019-04-21T06:29:10.150Z,10.34
2019-04-21T06:30:07.931Z,10.37
2019-04-21T06:31:14.611Z,10.49
2019-04-21T06:32:59.432Z,10.46
2019-04-21T06:35:28.491Z,10.53
2019-04-21T06:37:40.377Z,10.60
2019-04-21T06:38:26.589Z,10.61
2019-04-21T06:40:21.109Z,10.72
2019-04-21T06:42:15.827Z,10.78
2019-04-21T06:43:28.100Z,10.87
2019-04-21T06:44:14.920Z,10.92
2019-04-21T06:45:19.712Z,10.82
2019-04-21T06:46:25.837Z,10.86
2019-04-21T06:47:24.689Z,10.96
2019-04-21T06:48:20.735Z,10.99
2019-04-21T06:49:13.360Z,11.00
2019-04-21T06:50:23.855Z,10.97
2019-04-21T06:51:26.540Z,11.10
2019-04-21T06:52:41.926Z,11.17
2019-04-21T06:53:27.287Z,11.22
2019-04-21T06:54:15.641Z,11.32
2019-04-21T06:55:20.157Z,11.35
2019-04-21T06:56:23.623Z,11.37
2019-04-21T06:57:16.986Z,11.45
2019-04-21T06:58:19.762Z,11.52
2019-04-21T06:59:13.529Z,11.52
2019-04-21T07:00:12.057Z,11.55
2019-04-21T07:01:22.988Z,11.55
2019-04-21T07:03:19.332Z,11.69
2019-04-21T07:04:28.015Z,11.77
2019-04-21T07:05:21.755Z,11.77
2019-04-21T07:06:31.904Z,11.87
2019-04-21T07:07:19.084Z,11.95
2019-04-21T07:08:28.803Z,11.91
2019-04-21T07:09:22.452Z,11.99
2019-04-21T07:10:18.223Z,12.04
2019-04-21T07:11:15.321Z,12.12
2019-04-21T07:12:12.583Z,12.07
2019-04-21T07:13:15.280Z,12.15
2019-04-21T07:14:29.388Z,12.32
2019-04-21T07:15:19.220Z,12.31
2019-04-21T07:16:18.733Z,12.35
2019-04-21T07:17:19.941Z,12.43
2019-04-21T07:18:19.203Z,12.49
2019-04-21T07:19:25.731Z,12.47
2019-04-21T07:20:17.282Z,12.54
2019-04-21T07:21:25.519Z,12.60
2019-04-21T07:22:19.598Z,12.70
2019-04-21T07:23:16.344Z,12.78
2019-04-21T07:24:22.601Z,12.82
2019-04-21T07:26:22.165Z,12.95
2019-04-21T07:27:15.205Z,13.03
2019-04-21T07:28:22.006Z,13.12
2019-04-21T07:29:20.631Z,13.22
2019-04-21T07:30:21.192Z,13.28
2019-04-21T07:31:19.105Z,13.37
2019-04-21T07:32:18.984Z,13.35
2019-04-21T07:33:44.746Z,13.47
2019-04-21T07:34:21.317Z,13.37
2019-04-21T07:35:31.679Z,13.37
2019-04-21T07:36:21.669Z,13.59
2019-04-21T07:37:12.663Z,13.63
2019-04-21T07:38:16.533Z,13.71
2019-04-21T07:39:10.304Z,13.81
2019-04-21T07:40:13.450Z,13.86
2019-04-21T07:41:09.911Z,13.97
2019-04-21T07:42:13.362Z,14.00
2019-04-21T07:43:10.765Z,14.05
2019-04-21T07:44:08.877Z,14.15
2019-04-21T07:45:13.333Z,14.18
2019-04-21T07:46:10.738Z,14.23
2019-04-21T07:47:17.091Z,14.36
2019-04-21T07:48:13.780Z,14.36
2019-04-21T07:49:12.799Z,14.45
2019-04-21T07:50:14.893Z,14.43
2019-04-21T07:51:20.692Z,14.53
2019-04-21T07:52:18.479Z,14.51
2019-04-21T07:53:22.789Z,14.55
2019-04-21T07:54:26.024Z,14.73
2019-04-21T07:55:59.358Z,14.73
2019-04-21T07:57:12.992Z,14.88
2019-04-21T07:58:15.000Z,14.96
2019-04-21T07:59:20.341Z,14.99
2019-04-21T08:01:19.928Z,15.11
2019-04-21T08:02:20.273Z,15.18
2019-04-21T08:03:13.752Z,15.25
2019-04-21T08:04:33.565Z,15.29
2019-04-21T08:06:20.739Z,15.47
2019-04-21T08:07:26.627Z,15.54
2019-04-21T08:08:11.802Z,15.52
2019-04-21T08:09:12.585Z,15.65
2019-04-21T08:10:11.657Z,15.65
2019-04-21T08:11:12.240Z,15.65
2019-04-21T08:12:08.083Z,15.73
2019-04-21T08:13:21.037Z,15.72
2019-04-21T08:14:17.007Z,15.79
2019-04-21T08:15:21.743Z,15.86
2019-04-21T08:16:20.723Z,15.92
2019-04-21T08:17:16.205Z,15.94
2019-04-21T08:18:16.667Z,16.00
2019-04-21T08:19:13.075Z,16.00
2019-04-21T08:20:15.597Z,16.13
2019-04-21T08:21:11.213Z,16.17
2019-04-21T08:22:18.105Z,16.24
2019-04-21T08:23:20.388Z,16.33
2019-04-21T08:24:14.955Z,16.36
2019-04-21T08:25:14.890Z,16.39
2019-04-21T08:26:15.648Z,16.46
2019-04-21T08:27:21.349Z,16.56
2019-04-21T08:28:09.145Z,16.57
2019-04-21T08:29:28.521Z,16.72
2019-04-21T08:30:11.040Z,16.87
2019-04-21T08:31:16.427Z,16.93
2019-04-21T08:32:18.464Z,17.05
2019-04-21T08:34:24.174Z,17.33
2019-04-21T08:35:34.075Z,17.42
2019-04-21T08:36:23.181Z,17.48
2019-04-21T08:37:14.624Z,17.57
2019-04-21T08:38:16.526Z,17.74
2019-04-21T08:39:14.066Z,17.82
2019-04-21T08:40:17.691Z,18.00
2019-04-21T08:41:13.687Z,18.13
2019-04-21T08:42:21.967Z,18.13
2019-04-21T08:43:20.553Z,18.29
2019-04-21T08:44:20.942Z,18.49
2019-04-21T08:45:15.854Z,18.53
2019-04-21T08:47:15.844Z,18.96
2019-04-21T08:48:17.038Z,19.11
2019-04-21T08:49:13.423Z,19.16
2019-04-21T08:50:15.123Z,19.08
2019-04-21T08:52:21.233Z,19.16
2019-04-21T08:53:12.557Z,19.21
2019-04-21T08:54:15.182Z,19.26
2019-04-21T08:55:22.450Z,19.37
2019-04-21T08:56:16.544Z,19.44
2019-04-21T08:57:20.105Z,19.37
2019-04-21T08:58:25.306Z,19.34
2019-04-21T08:59:19.289Z,19.45
2019-04-21T09:00:20.307Z,19.52
2019-04-21T09:01:22.524Z,19.58
2019-04-21T09:02:16.499Z,19.56
2019-04-21T09:03:14.650Z,19.64
2019-04-21T09:04:12.958Z,19.69
2019-04-21T09:05:11.137Z,19.70
2019-04-21T09:06:13.820Z,19.70
2019-04-21T09:07:12.897Z,19.86
2019-04-21T09:08:15.274Z,19.88
2019-04-21T09:09:17.847Z,20.09
2019-04-21T09:10:09.457Z,20.09
2019-04-21T09:11:12.415Z,20.14
2019-04-21T09:12:10.592Z,20.37
2019-04-21T09:13:14.834Z,20.29
2019-04-21T09:14:13.600Z,20.52
2019-04-21T09:15:14.094Z,20.58
2019-04-21T09:16:09.738Z,20.62
2019-04-21T09:17:06.480Z,20.50
2019-04-21T09:18:08.858Z,20.59
2019-04-21T09:19:11.510Z,20.59
2019-04-21T09:20:20.947Z,20.58
2019-04-21T09:21:14.919Z,20.59
2019-04-21T09:22:10.828Z,20.63
2019-04-21T09:23:13.309Z,20.81
2019-04-21T09:24:11.587Z,20.93
2019-04-21T09:25:14.552Z,20.96
2019-04-21T09:26:14.437Z,20.93
2019-04-21T09:27:08.512Z,20.99
2019-04-21T09:28:14.759Z,20.99
2019-04-21T09:29:07.078Z,21.06
2019-04-21T09:29:59.331Z,21.02
2019-04-21T09:30:58.448Z,21.00
2019-04-21T09:31:56.267Z,21.00
2019-04-21T09:32:57.915Z,21.12
2019-04-21T09:33:57.012Z,21.27
2019-04-21T09:34:53.863Z,21.27
2019-04-21T09:35:59.288Z,21.25
2019-04-21T09:37:10.501Z,21.24
2019-04-21T09:38:02.124Z,21.27
2019-04-21T09:39:00.029Z,21.39
2019-04-21T09:39:57.318Z,21.51
2019-04-21T09:40:54.810Z,21.45
2019-04-21T09:41:57.121Z,21.54
2019-04-21T09:42:59.467Z,21.61
2019-04-21T09:43:57.188Z,21.62
2019-04-21T09:44:57.994Z,21.73
2019-04-21T09:45:54.228Z,21.82
2019-04-21T09:46:56.365Z,21.89
2019-04-21T09:48:00.881Z,22.07
2019-04-21T09:49:00.875Z,22.10
2019-04-21T09:49:54.409Z,22.11
2019-04-21T09:50:52.779Z,22.07
2019-04-21T09:51:53.001Z,22.23
2019-04-21T09:52:58.261Z,22.22
2019-04-21T09:54:01.907Z,22.29
2019-04-21T09:55:03.918Z,22.35
2019-04-21T09:55:58.159Z,22.43
2019-04-21T09:56:59.460Z,22.43
2019-04-21T09:57:57.018Z,22.47
2019-04-21T09:59:04.105Z,22.62
2019-04-21T10:00:04.105Z,22.66
2019-04-21T10:01:07.139Z,22.78
2019-04-21T10:02:05.197Z,22.85
2019-04-21T10:03:00.851Z,22.94
2019-04-21T10:04:08.086Z,23.05
2019-04-21T10:04:52.774Z,23.18
2019-04-21T10:05:52.517Z,23.34
2019-04-21T10:06:52.506Z,23.40
2019-04-21T10:07:53.154Z,23.56
2019-04-21T10:08:58.524Z,23.56
2019-04-21T10:09:54.584Z,23.51
2019-04-21T10:10:52.482Z,23.69
2019-04-21T10:11:52.793Z,23.68
2019-04-21T10:12:52.438Z,23.76
2019-04-21T10:13:52.987Z,23.78
2019-04-21T10:14:52.418Z,23.78
2019-04-21T10:15:52.414Z,23.84
2019-04-21T10:16:52.394Z,23.83
2019-04-21T10:17:53.982Z,23.76
2019-04-21T10:18:52.458Z,23.69
2019-04-21T10:19:52.893Z,23.80
2019-04-21T10:20:52.370Z,23.91
2019-04-21T10:21:52.362Z,24.01
2019-04-21T10:22:53.115Z,24.14
2019-04-21T10:23:52.326Z,24.18
2019-04-21T10:24:52.386Z,24.35
2019-04-21T10:25:52.581Z,24.36
2019-04-21T10:26:53.476Z,24.35
2019-04-21T10:27:52.821Z,24.18
2019-04-21T10:28:52.996Z,23.99
2019-04-21T10:29:52.354Z,23.91
2019-04-21T10:30:52.898Z,24.03
2019-04-21T10:31:52.496Z,24.06
2019-04-21T10:32:52.466Z,24.01
2019-04-21T10:33:52.596Z,23.96
2019-04-21T10:34:52.863Z,23.93
2019-04-21T10:35:53.057Z,23.95
2019-04-21T10:36:53.091Z,23.93
2019-04-21T10:38:05.774Z,24.17
2019-04-21T10:38:53.983Z,24.14
2019-04-21T10:39:52.154Z,24.17
2019-04-21T10:40:52.146Z,24.01
2019-04-21T10:41:53.172Z,24.02
2019-04-21T10:42:52.322Z,23.98
2019-04-21T10:43:52.122Z,23.92
2019-04-21T10:44:52.689Z,23.81
2019-04-21T10:45:52.858Z,23.55
2019-04-21T10:46:54.012Z,23.59
2019-04-21T10:47:52.816Z,23.69
2019-04-21T10:48:52.606Z,23.73
2019-04-21T10:49:52.817Z,23.92
2019-04-21T10:50:52.762Z,23.93
2019-04-21T10:51:53.013Z,24.03
2019-04-21T10:52:53.156Z,24.06
2019-04-21T10:53:52.838Z,24.05
2019-04-21T10:55:12.420Z,24.11
2019-04-21T10:56:05.789Z,24.29
2019-04-21T10:56:52.986Z,24.50
2019-04-21T10:57:52.710Z,24.43
2019-04-21T10:58:52.222Z,24.21
2019-04-21T10:59:54.110Z,24.17
2019-04-21T11:00:52.768Z,24.14
2019-04-21T11:01:52.751Z,24.35
2019-04-21T11:02:52.827Z,24.42
2019-04-21T11:03:53.100Z,24.40
2019-04-21T11:04:51.881Z,24.42
2019-04-21T11:05:52.625Z,24.38
2019-04-21T11:06:52.690Z,24.29
2019-04-21T11:08:07.672Z,24.38
2019-04-21T11:08:55.567Z,24.40
2019-04-21T11:09:51.921Z,24.53
2019-04-21T11:10:51.975Z,24.32
2019-04-21T11:11:53.522Z,24.36
2019-04-21T11:12:52.771Z,24.35
2019-04-21T11:13:52.643Z,24.32
2019-04-21T11:14:51.783Z,24.14
2019-04-21T11:15:52.905Z,24.20
2019-04-21T11:16:53.126Z,24.23
2019-04-21T11:17:52.333Z,24.16
2019-04-21T11:18:51.875Z,24.18
2019-04-21T11:19:52.648Z,24.16
2019-04-21T11:20:53.096Z,24.20
2019-04-21T11:21:52.582Z,24.33
2019-04-21T11:22:51.685Z,24.33
2019-04-21T11:23:52.219Z,24.28
2019-04-21T11:24:51.675Z,24.42
2019-04-21T11:25:51.760Z,24.42
2019-04-21T11:26:51.999Z,24.32
2019-04-21T11:27:53.073Z,24.23
2019-04-21T11:28:52.686Z,24.16
2019-04-21T11:29:51.757Z,24.24
2019-04-21T11:30:52.971Z,24.26
2019-04-21T11:31:51.575Z,24.42
2019-04-21T11:32:53.031Z,24.50
2019-04-21T11:33:51.567Z,24.74
2019-04-21T11:34:51.564Z,24.74
2019-04-21T11:35:51.547Z,24.77
2019-04-21T11:36:52.257Z,24.73
2019-04-21T11:37:52.431Z,24.57
2019-04-21T11:39:07.371Z,24.63
2019-04-21T11:40:02.646Z,24.65
2019-04-21T11:40:53.904Z,24.58
2019-04-21T11:41:52.127Z,24.45
2019-04-21T11:42:51.610Z,24.58
2019-04-21T11:43:52.997Z,24.76
2019-04-21T11:44:51.577Z,24.74
2019-04-21T11:45:52.604Z,24.70
2019-04-21T11:46:52.155Z,24.81
2019-04-21T11:47:52.230Z,24.80
2019-04-21T11:48:52.484Z,24.88
2019-04-21T11:49:52.804Z,24.81
2019-04-21T11:50:51.415Z,24.89
2019-04-21T11:51:51.367Z,24.92
2019-04-21T11:52:52.751Z,25.01
2019-04-21T11:53:52.750Z,25.08
2019-04-21T11:54:51.340Z,25.11
2019-04-21T11:55:52.078Z,25.03
2019-04-21T11:56:52.757Z,24.88
2019-04-21T11:57:53.073Z,24.93
2019-04-21T11:58:51.908Z,24.96
2019-04-21T11:59:51.438Z,24.73
2019-04-21T12:00:52.205Z,24.78
2019-04-21T12:01:51.808Z,24.77
2019-04-21T12:02:51.281Z,24.85
2019-04-21T12:03:54.117Z,25.03
2019-04-21T12:04:51.639Z,25.07
2019-04-21T12:05:51.345Z,25.06
2019-04-21T12:06:52.867Z,25.11
2019-04-21T12:07:51.384Z,25.07
2019-04-21T12:08:53.326Z,25.14
2019-04-21T12:09:51.337Z,25.14
2019-04-21T12:10:51.543Z,25.13
2019-04-21T12:11:51.498Z,25.14
2019-04-21T12:12:51.138Z,25.18
2019-04-21T12:13:52.102Z,25.18
2019-04-21T12:14:52.224Z,25.11
2019-04-21T12:15:51.094Z,24.99
2019-04-21T12:16:51.078Z,24.96
2019-04-21T12:17:52.167Z,25.01
2019-04-21T12:18:52.332Z,25.11
2019-04-21T12:19:51.051Z,25.26
2019-04-21T12:20:53.757Z,25.32
2019-04-21T12:22:03.618Z,25.28
2019-04-21T12:22:52.938Z,25.46
2019-04-21T12:23:52.374Z,25.46
2019-04-21T12:24:51.407Z,25.54
2019-04-21T12:25:51.591Z,25.53
2019-04-21T12:26:51.784Z,25.47
2019-04-21T12:27:52.084Z,25.36
2019-04-21T12:28:51.921Z,25.44
2019-04-21T12:29:51.695Z,25.63
2019-04-21T12:30:51.682Z,25.81
2019-04-21T12:31:51.714Z,25.80
2019-04-21T12:32:51.931Z,25.75
2019-04-21T12:33:51.941Z,25.63
2019-04-21T12:34:52.242Z,25.53
2019-04-21T12:35:51.555Z,25.48
2019-04-21T12:36:50.900Z,25.46
2019-04-21T12:37:51.099Z,25.40
2019-04-21T12:38:55.800Z,25.40
2019-04-21T12:39:52.554Z,25.40
2019-04-21T12:40:50.898Z,25.50
2019-04-21T12:41:50.877Z,25.60
2019-04-21T12:42:50.955Z,25.66
2019-04-21T12:43:50.818Z,25.83
2019-04-21T12:44:51.741Z,25.85
2019-04-21T12:45:51.810Z,25.83
2019-04-21T12:46:51.923Z,25.66
2019-04-21T12:47:52.421Z,25.59
2019-04-21T12:48:51.625Z,25.43
2019-04-21T12:49:52.014Z,25.41
2019-04-21T12:50:51.968Z,25.47
2019-04-21T12:51:51.552Z,25.54
2019-04-21T12:52:51.659Z,25.65
2019-04-21T12:53:51.908Z,25.60
2019-04-21T12:54:51.469Z,25.68
2019-04-21T12:55:51.754Z,25.78
2019-04-21T12:56:51.736Z,25.77
2019-04-21T12:57:50.658Z,25.80
2019-04-21T12:58:51.350Z,25.84
2019-04-21T12:59:50.942Z,26.00
2019-04-21T13:00:51.687Z,26.13
2019-04-21T13:01:50.838Z,26.19
2019-04-21T13:02:51.881Z,26.21
2019-04-21T13:03:50.594Z,26.18
2019-04-21T13:07:10.011Z,26.10
2019-04-21T13:08:11.185Z,26.13
2019-04-21T13:09:13.080Z,25.88
2019-04-21T13:10:10.978Z,25.85
2019-04-21T13:11:11.355Z,25.87
2019-04-21T13:12:11.084Z,25.91
2019-04-21T13:13:10.111Z,25.81
2019-04-21T13:14:09.922Z,25.83
2019-04-21T13:15:10.863Z,25.85
2019-04-21T13:16:09.913Z,25.80
2019-04-21T13:17:10.058Z,25.81
2019-04-21T13:18:31.267Z,25.85
2019-04-21T13:19:25.239Z,25.80
2019-04-21T13:20:09.860Z,25.77
2019-04-21T13:22:19.570Z,25.93
2019-04-21T13:24:29.604Z,26.06
2019-04-21T13:26:46.745Z,26.02
2019-04-21T13:27:40.866Z,25.93
2019-04-21T13:29:14.745Z,25.90
2019-04-21T13:29:38.919Z,25.80
2019-04-21T13:30:40.123Z,25.81
2019-04-21T13:31:40.098Z,25.77
2019-04-21T13:32:39.204Z,25.85
2019-04-21T13:33:39.907Z,25.93
2019-04-21T13:34:40.094Z,25.91
2019-04-21T13:35:39.177Z,26.00
2019-04-21T13:36:39.268Z,26.21
2019-04-21T13:37:39.624Z,26.26
2019-04-21T13:38:45.903Z,26.21
2019-04-21T13:40:03.461Z,25.96
2019-04-21T13:41:50.489Z,25.93
2019-04-21T13:42:45.648Z,26.00
2019-04-21T13:43:41.163Z,25.83
2019-04-21T13:44:39.186Z,25.84
2019-04-21T13:45:39.500Z,25.66
2019-04-21T13:46:38.758Z,25.60
2019-04-21T13:47:38.861Z,25.66
2019-04-21T13:48:40.209Z,25.66
2019-04-21T13:49:39.210Z,25.63
2019-04-21T13:50:39.467Z,25.80
2019-04-21T13:51:38.713Z,25.63
2019-04-21T13:52:38.698Z,25.73
2019-04-21T13:53:39.938Z,25.80
2019-04-21T13:54:39.865Z,25.90
2019-04-21T13:55:39.284Z,25.84
2019-04-21T13:56:38.650Z,25.81
2019-04-21T13:57:38.857Z,25.77
2019-04-21T13:58:39.999Z,25.80
2019-04-21T13:59:38.617Z,25.83
2019-04-21T14:00:39.869Z,25.84
2019-04-21T14:01:39.573Z,25.93
2019-04-21T14:02:38.754Z,25.96
2019-04-21T14:03:39.684Z,25.98
2019-04-21T14:04:38.596Z,26.10
2019-04-21T14:05:38.566Z,26.07
2019-04-21T14:06:38.546Z,26.23
2019-04-21T14:07:38.586Z,26.16
2019-04-21T14:08:41.663Z,26.15
2019-04-21T14:09:47.635Z,26.06
2019-04-21T14:10:39.835Z,26.09
2019-04-21T14:11:38.491Z,25.87
2019-04-21T14:12:38.497Z,25.80
2019-04-21T14:13:38.586Z,25.95
2019-04-21T14:14:38.687Z,26.06
2019-04-21T14:15:38.445Z,25.98
2019-04-21T14:16:38.438Z,26.10
2019-04-21T14:17:39.191Z,26.07
2019-04-21T14:18:38.598Z,26.19
2019-04-21T14:19:39.456Z,26.25
2019-04-21T14:20:39.468Z,26.34
2019-04-21T14:21:39.154Z,26.41
2019-04-21T14:22:38.374Z,26.43